createdAt,value
2023-02-22T00:00:40.606Z,25.91
2023-02-22T00:03:11.109Z,25.69
2023-02-22T00:05:40.897Z,25.38
2023-02-22T00:08:09.990Z,25.67
2023-02-22T00:10:38.419Z,25.83
2023-02-22T00:13:08.116Z,25.67
2023-02-22T00:15:35.700Z,25.64
2023-02-22T00:18:04.453Z,25.84
2023-02-22T00:20:32.755Z,25.62
2023-02-22T00:23:01.468Z,25.63
2023-02-22T00:25:28.378Z,25.74
2023-02-22T00:27:56.233Z,25.57
2023-02-22T00:30:26.748Z,25.73
2023-02-22T00:32:55.974Z,25.63
2023-02-22T00:35:25.251Z,25.65
2023-02-22T00:37:56.070Z,25.80
2023-02-22T00:40:25.362Z,25.67
2023-02-22T00:42:52.911Z,25.76
2023-02-22T00:45:21.697Z,25.52
2023-02-22T00:47:48.632Z,25.59
2023-02-22T00:50:16.424Z,25.68
2023-02-22T00:52:43.302Z,25.70
2023-02-22T00:55:17.793Z,25.58
2023-02-22T00:57:45.303Z,25.46
2023-02-22T01:00:17.898Z,25.68
2023-02-22T01:02:45.058Z,25.68
2023-02-22T01:05:14.821Z,25.50
2023-02-22T01:07:42.265Z,25.59
2023-02-22T01:10:12.029Z,25.67
2023-02-22T01:12:38.931Z,25.50
2023-02-22T01:15:10.433Z,25.80
2023-02-22T01:17:37.162Z,25.43
2023-02-22T01:20:10.198Z,25.64
2023-02-22T01:22:37.541Z,25.52
2023-02-22T01:25:07.319Z,25.79
2023-02-22T01:27:36.104Z,25.58
2023-02-22T01:30:08.659Z,25.52
2023-02-22T01:32:36.444Z,25.53
2023-02-22T01:35:05.073Z,25.88
2023-02-22T01:37:32.460Z,25.50
2023-02-22T01:40:00.566Z,25.27
2023-02-22T01:42:29.273Z,25.57
2023-02-22T01:45:38.526Z,25.52
2023-02-22T01:48:09.458Z,25.60
2023-02-22T01:50:40.351Z,25.59
2023-02-22T01:53:09.260Z,25.66
2023-02-22T01:55:36.472Z,25.45
2023-02-22T01:58:05.064Z,25.37
2023-02-22T02:00:33.533Z,25.73
2023-02-22T02:03:04.674Z,25.48
2023-02-22T02:05:34.342Z,25.45
2023-02-22T02:08:08.892Z,25.49
2023-02-22T02:10:36.031Z,25.44
2023-02-22T02:13:04.013Z,25.45
2023-02-22T02:15:33.735Z,25.59
2023-02-22T02:18:05.041Z,25.36
2023-02-22T02:20:40.659Z,25.51
2023-02-22T02:23:24.651Z,25.68
2023-02-22T02:26:22.880Z,25.47
2023-02-22T02:29:25.610Z,25.38
2023-02-22T02:32:22.768Z,25.69
2023-02-22T02:34:53.795Z,25.54
2023-02-22T02:37:27.689Z,25.50
2023-02-22T02:39:59.260Z,25.50
2023-02-22T02:42:34.684Z,25.37
2023-02-22T02:45:10.017Z,25.47
2023-02-22T02:47:42.432Z,25.42
2023-02-22T02:50:11.668Z,25.24
2023-02-22T02:52:40.812Z,25.49
2023-02-22T02:55:11.308Z,25.46
2023-02-22T02:57:41.462Z,25.50
2023-02-22T03:00:22.648Z,25.37
2023-02-22T03:03:10.364Z,25.43
2023-02-22T03:05:59.541Z,25.62
2023-02-22T03:08:34.655Z,25.44
2023-02-22T03:11:15.123Z,25.43
2023-02-22T03:13:52.120Z,25.32
2023-02-22T03:16:29.725Z,25.28
2023-02-22T03:19:08.906Z,25.50
2023-02-22T03:21:47.996Z,25.37
2023-02-22T03:24:21.484Z,25.42
2023-02-22T03:26:54.018Z,25.52
2023-02-22T03:29:23.815Z,25.35
2023-02-22T03:31:53.652Z,25.30
2023-02-22T03:34:27.560Z,25.24
2023-02-22T03:36:59.143Z,25.20
2023-02-22T03:39:31.088Z,24.95
2023-02-22T03:42:06.902Z,25.30
2023-02-22T03:44:38.417Z,25.31
2023-02-22T03:47:09.561Z,25.28
2023-02-22T03:49:42.808Z,25.52
2023-02-22T03:52:10.234Z,25.33
2023-02-22T03:54:38.612Z,25.45
2023-02-22T03:57:09.964Z,25.25
2023-02-22T03:59:40.625Z,25.21
2023-02-22T04:02:07.561Z,25.28
2023-02-22T04:04:34.608Z,25.23
2023-02-22T04:07:03.538Z,25.07
2023-02-22T04:09:30.660Z,25.31
2023-02-22T04:11:57.663Z,25.30
2023-02-22T04:14:25.801Z,25.21
2023-02-22T04:16:54.229Z,25.18
2023-02-22T04:19:21.323Z,25.05
2023-02-22T04:21:50.637Z,25.20
2023-02-22T04:24:24.045Z,25.09
2023-02-22T04:26:51.142Z,25.27
2023-02-22T04:29:19.103Z,25.16
2023-02-22T04:31:46.011Z,25.15
2023-02-22T04:34:12.928Z,25.19
2023-02-22T04:36:42.393Z,25.17
2023-02-22T04:39:09.687Z,25.39
2023-02-22T04:41:37.939Z,25.24
2023-02-22T04:44:06.662Z,25.23
2023-02-22T04:46:34.322Z,25.24
2023-02-22T04:49:02.800Z,25.42
2023-02-22T04:51:32.270Z,25.24
2023-02-22T04:54:07.438Z,25.10
2023-02-22T04:56:38.260Z,25.03
2023-02-22T04:59:05.933Z,25.24
2023-02-22T05:01:33.727Z,25.01
2023-02-22T05:04:02.159Z,25.11
2023-02-22T05:06:29.116Z,25.12
2023-02-22T05:08:55.964Z,25.04
2023-02-22T05:11:22.903Z,25.08
2023-02-22T05:13:51.328Z,25.10
2023-02-22T05:16:18.366Z,25.15
2023-02-22T05:18:45.372Z,25.13
2023-02-22T05:21:13.596Z,25.08
2023-02-22T05:23:41.455Z,25.17
2023-02-22T05:26:10.019Z,25.17
2023-02-22T05:28:38.411Z,25.17
2023-02-22T05:31:07.541Z,25.11
2023-02-22T05:33:34.470Z,25.07
2023-02-22T05:36:01.358Z,24.92
2023-02-22T05:38:28.617Z,25.06
2023-02-22T05:40:56.936Z,25.15
2023-02-22T05:43:23.845Z,24.99
2023-02-22T05:45:50.725Z,24.96
2023-02-22T05:48:20.693Z,25.08
2023-02-22T05:50:49.951Z,25.17
2023-02-22T05:53:16.986Z,25.15
2023-02-22T05:55:46.203Z,25.28
2023-02-22T05:58:13.486Z,25.37
2023-02-22T06:00:40.461Z,25.25
2023-02-22T06:03:09.376Z,25.41
2023-02-22T06:05:37.894Z,25.37
2023-02-22T06:08:06.804Z,25.30
2023-02-22T06:10:33.909Z,25.36
2023-02-22T06:13:01.925Z,25.38
2023-02-22T06:15:29.658Z,25.16
2023-02-22T06:17:57.878Z,25.28
2023-02-22T06:20:27.302Z,25.30
2023-02-22T06:22:56.630Z,25.15
2023-02-22T06:25:25.208Z,25.20
2023-02-22T06:27:52.387Z,25.02
2023-02-22T06:30:21.612Z,25.27
2023-02-22T06:32:48.539Z,25.40
2023-02-22T06:35:16.121Z,24.93
2023-02-22T06:37:42.966Z,24.85
2023-02-22T06:40:12.488Z,25.02
2023-02-22T06:42:39.957Z,24.82
2023-02-22T06:45:07.614Z,24.73
2023-02-22T06:47:38.508Z,25.05
2023-02-22T06:50:05.789Z,24.87
2023-02-22T06:52:32.685Z,24.93
2023-02-22T06:54:59.489Z,24.74
2023-02-22T06:57:27.636Z,24.51
2023-02-22T06:59:54.485Z,24.72
2023-02-22T07:02:21.295Z,24.52
2023-02-22T07:04:48.154Z,24.73
2023-02-22T07:07:14.998Z,24.57
2023-02-22T07:09:42.187Z,24.82
2023-02-22T07:12:10.306Z,24.44
2023-02-22T07:14:38.506Z,24.48
2023-02-22T07:17:05.374Z,24.70
2023-02-22T07:19:32.146Z,24.28
2023-02-22T07:21:59.413Z,24.38
2023-02-22T07:24:28.381Z,24.52
2023-02-22T07:26:55.714Z,24.81
2023-02-22T07:29:22.633Z,24.51
2023-02-22T07:31:51.060Z,24.70
2023-02-22T07:34:18.013Z,24.76
2023-02-22T07:36:44.902Z,24.88
2023-02-22T07:39:11.820Z,24.78
2023-02-22T07:41:38.773Z,24.87
2023-02-22T07:44:14.561Z,24.75
2023-02-22T07:46:41.423Z,24.78
2023-02-22T07:49:09.613Z,25.03
2023-02-22T07:51:36.466Z,24.82
2023-02-22T07:54:03.344Z,25.13
2023-02-22T07:56:30.203Z,24.93
2023-02-22T07:58:57.096Z,25.14
2023-02-22T08:01:24.727Z,24.94
2023-02-22T08:03:52.648Z,25.26
2023-02-22T08:06:21.091Z,25.35
2023-02-22T08:08:47.941Z,25.36
2023-02-22T08:11:15.095Z,25.54
2023-02-22T08:13:42.090Z,25.44
2023-02-22T08:16:09.148Z,25.37
2023-02-22T08:18:38.271Z,25.63
2023-02-22T08:21:05.477Z,25.86
2023-02-22T08:23:34.497Z,26.02
2023-02-22T08:26:05.383Z,26.05
2023-02-22T08:28:32.374Z,25.76
2023-02-22T08:30:59.310Z,26.23
2023-02-22T08:33:26.301Z,26.29
2023-02-22T08:35:53.213Z,26.23
2023-02-22T08:38:22.510Z,26.35
2023-02-22T08:40:51.222Z,26.13
2023-02-22T08:43:18.497Z,26.41
2023-02-22T08:45:46.076Z,26.36
2023-02-22T08:48:14.065Z,26.63
2023-02-22T08:50:41.951Z,26.70
2023-02-22T08:53:10.623Z,26.58
2023-02-22T08:55:38.696Z,26.42
2023-02-22T08:58:10.289Z,26.80
2023-02-22T09:00:38.801Z,26.61
2023-02-22T09:03:07.345Z,26.89
2023-02-22T09:05:34.379Z,26.63
2023-02-22T09:08:01.698Z,26.67
2023-02-22T09:10:31.446Z,26.46
2023-02-22T09:13:00.609Z,26.93
2023-02-22T09:15:29.118Z,26.78
2023-02-22T09:17:56.306Z,26.80
2023-02-22T09:20:25.000Z,26.89
2023-02-22T09:22:52.746Z,27.00
2023-02-22T09:25:23.399Z,26.92
2023-02-22T09:27:51.234Z,27.04
2023-02-22T09:30:23.588Z,26.99
2023-02-22T09:32:54.070Z,26.95
2023-02-22T09:35:26.976Z,27.00
2023-02-22T09:37:55.222Z,27.32
2023-02-22T09:40:25.913Z,27.38
2023-02-22T09:43:02.474Z,27.33
2023-02-22T09:45:36.849Z,27.32
2023-02-22T09:48:21.294Z,27.18
2023-02-22T09:50:51.687Z,27.37
2023-02-22T09:53:31.618Z,27.55
2023-02-22T09:56:05.057Z,27.50
2023-02-22T09:58:34.481Z,27.43
2023-02-22T10:01:18.809Z,27.47
2023-02-22T10:03:55.539Z,27.40
2023-02-22T10:06:24.933Z,27.36
2023-02-22T10:08:56.488Z,27.41
2023-02-22T10:11:37.613Z,27.48
2023-02-22T10:14:20.098Z,27.55
2023-02-22T10:16:53.248Z,27.65
2023-02-22T10:19:31.603Z,27.53
2023-02-22T10:22:28.613Z,27.51
2023-02-22T10:25:00.709Z,27.66
2023-02-22T10:27:32.827Z,27.56
2023-02-22T10:30:12.806Z,27.76
2023-02-22T10:32:53.157Z,27.85
2023-02-22T10:35:25.697Z,27.79
2023-02-22T10:37:56.281Z,27.72
2023-02-22T10:40:32.204Z,28.14
2023-02-22T10:43:02.836Z,28.09
2023-02-22T10:45:35.958Z,28.08
2023-02-22T10:48:08.599Z,27.86
2023-02-22T10:50:39.829Z,27.84
2023-02-22T10:53:07.509Z,28.07
2023-02-22T10:55:34.585Z,28.21
2023-02-22T10:58:07.452Z,28.25
2023-02-22T11:00:37.448Z,28.46
2023-02-22T11:03:15.594Z,28.36
2023-02-22T11:05:44.128Z,28.46
2023-02-22T11:08:16.655Z,28.39
2023-02-22T11:10:44.005Z,28.38
2023-02-22T11:13:18.629Z,28.30
2023-02-22T11:15:45.672Z,28.49
2023-02-22T11:18:24.925Z,28.32
2023-02-22T11:21:02.373Z,28.27
2023-02-22T11:23:29.736Z,28.46
2023-02-22T11:26:07.536Z,28.46
2023-02-22T11:28:35.224Z,28.50
2023-02-22T11:31:14.501Z,28.36
2023-02-22T11:33:49.018Z,28.32
2023-02-22T11:36:31.264Z,28.61
2023-02-22T11:39:00.842Z,28.66
2023-02-22T11:41:34.975Z,28.82
2023-02-22T11:44:23.624Z,28.68
2023-02-22T11:46:52.044Z,28.67
2023-02-22T11:49:20.099Z,28.77
2023-02-22T11:52:06.709Z,28.99
2023-02-22T11:54:53.096Z,28.90
2023-02-22T11:57:38.470Z,28.96
2023-02-22T12:00:16.372Z,28.92
2023-02-22T12:03:13.010Z,29.04
2023-02-22T12:05:59.648Z,29.02
2023-02-22T12:08:37.723Z,28.84
2023-02-22T12:11:13.870Z,29.08
2023-02-22T12:13:59.321Z,29.07
2023-02-22T12:16:38.100Z,29.07
2023-02-22T12:19:15.003Z,29.59
2023-02-22T12:21:46.665Z,29.75
2023-02-22T12:24:19.369Z,30.13
2023-02-22T12:26:50.503Z,30.28
2023-02-22T12:29:26.798Z,30.19
2023-02-22T12:32:00.505Z,30.42
2023-02-22T12:34:35.903Z,30.59
2023-02-22T12:37:13.055Z,30.35
2023-02-22T12:39:53.562Z,29.89
2023-02-22T12:42:28.575Z,30.12
2023-02-22T12:45:01.060Z,29.89
2023-02-22T12:47:35.486Z,29.82
2023-02-22T12:50:11.719Z,29.63
2023-02-22T12:52:44.545Z,29.67
2023-02-22T12:55:16.830Z,29.56
2023-02-22T12:57:49.002Z,29.50
2023-02-22T13:00:23.134Z,29.70
2023-02-22T13:02:58.802Z,29.85
2023-02-22T13:05:26.173Z,29.78
2023-02-22T13:08:19.521Z,29.57
2023-02-22T13:11:10.936Z,29.63
2023-02-22T13:13:54.282Z,30.04
2023-02-22T13:16:32.893Z,29.75
2023-02-22T13:19:04.909Z,29.50
2023-02-22T13:21:41.113Z,29.73
2023-02-22T13:24:18.599Z,29.49
2023-02-22T13:26:51.411Z,29.68
2023-02-22T13:29:23.276Z,29.49
2023-02-22T13:32:04.492Z,29.51
2023-02-22T13:34:46.709Z,29.47
2023-02-22T13:37:36.004Z,29.69
2023-02-22T13:40:39.231Z,29.89
2023-02-22T13:43:25.140Z,29.61
2023-02-22T13:46:12.609Z,29.51
2023-02-22T13:49:03.132Z,29.72
2023-02-22T13:51:56.670Z,29.60
2023-02-22T13:54:31.278Z,29.55
2023-02-22T13:56:58.217Z,29.46
2023-02-22T13:59:30.121Z,29.52
2023-02-22T14:01:58.912Z,29.92
2023-02-22T14:04:38.256Z,30.23
2023-02-22T14:07:40.807Z,30.53
2023-02-22T14:10:46.629Z,30.16
2023-02-22T14:13:17.201Z,30.08
2023-02-22T14:16:22.909Z,30.02
2023-02-22T14:19:00.047Z,30.06
2023-02-22T14:21:26.962Z,29.67
2023-02-22T14:23:55.920Z,30.03
2023-02-22T14:26:26.867Z,29.85
2023-02-22T14:28:58.101Z,30.18
2023-02-22T14:31:35.931Z,29.85
2023-02-22T14:34:10.024Z,29.61
2023-02-22T14:36:44.699Z,29.93
2023-02-22T14:39:17.929Z,29.68
2023-02-22T14:41:51.621Z,30.03
2023-02-22T14:44:27.556Z,29.33
2023-02-22T14:46:56.940Z,28.86
2023-02-22T14:49:28.460Z,29.13
2023-02-22T14:51:59.535Z,28.55
2023-02-22T14:54:32.895Z,28.80
2023-02-22T14:57:14.812Z,28.33
2023-02-22T14:59:58.926Z,28.44
2023-02-22T15:02:26.166Z,28.87
2023-02-22T15:04:54.523Z,28.57
2023-02-22T15:07:27.440Z,28.98
2023-02-22T15:10:25.329Z,28.99
2023-02-22T15:12:59.056Z,28.67
2023-02-22T15:15:27.602Z,29.04
2023-02-22T15:17:56.531Z,28.71
2023-02-22T15:20:25.707Z,28.59
2023-02-22T15:22:59.459Z,28.80
2023-02-22T15:25:28.793Z,28.89
2023-02-22T15:28:01.693Z,28.79
2023-02-22T15:30:32.982Z,28.80
2023-02-22T15:33:14.730Z,28.63
2023-02-22T15:35:42.432Z,29.02
2023-02-22T15:38:20.200Z,29.03
2023-02-22T15:40:50.747Z,29.10
2023-02-22T15:43:24.170Z,28.70
2023-02-22T15:45:52.736Z,29.02
2023-02-22T15:48:19.870Z,28.64
2023-02-22T15:51:10.561Z,29.11
2023-02-22T15:53:43.120Z,28.98
2023-02-22T15:56:14.592Z,28.91
2023-02-22T15:58:43.297Z,29.01
2023-02-22T16:01:18.766Z,28.76
2023-02-22T16:03:48.966Z,28.78
2023-02-22T16:06:28.625Z,28.83
2023-02-22T16:08:58.790Z,29.28
2023-02-22T16:11:30.594Z,28.93
2023-02-22T16:14:01.153Z,29.20
2023-02-22T16:16:32.307Z,29.20
2023-02-22T16:19:37.701Z,29.38
2023-02-22T16:22:13.576Z,29.41
2023-02-22T16:24:41.010Z,28.99
2023-02-22T16:27:18.837Z,29.24
2023-02-22T16:30:02.435Z,29.22
2023-02-22T16:32:31.492Z,29.22
2023-02-22T16:34:58.341Z,29.02
2023-02-22T16:37:25.364Z,29.21
2023-02-22T16:39:52.208Z,29.25
2023-02-22T16:42:24.082Z,28.98
2023-02-22T16:44:52.527Z,29.17
2023-02-22T16:47:19.565Z,29.45
2023-02-22T16:49:52.871Z,29.22
2023-02-22T16:52:20.658Z,29.57
2023-02-22T16:54:48.126Z,28.95
2023-02-22T16:57:20.837Z,29.31
2023-02-22T16:59:52.040Z,29.08
2023-02-22T17:02:19.978Z,28.85
2023-02-22T17:04:49.911Z,28.99
2023-02-22T17:07:20.604Z,29.14
2023-02-22T17:09:47.485Z,28.58
2023-02-22T17:12:14.351Z,29.02
2023-02-22T17:14:45.804Z,28.79
2023-02-22T17:17:13.476Z,28.93
2023-02-22T17:19:40.264Z,28.77
2023-02-22T17:22:09.435Z,28.68
2023-02-22T17:24:39.231Z,28.23
2023-02-22T17:27:06.104Z,28.56
2023-02-22T17:29:32.926Z,28.30
2023-02-22T17:32:00.131Z,28.12
2023-02-22T17:34:28.073Z,28.37
2023-02-22T17:36:55.011Z,28.32
2023-02-22T17:39:21.970Z,27.80
2023-02-22T17:41:57.028Z,27.85
2023-02-22T17:44:24.582Z,27.92
2023-02-22T17:46:52.936Z,27.66
2023-02-22T17:49:19.996Z,28.23
2023-02-22T17:51:49.896Z,27.73
2023-02-22T17:54:17.537Z,27.90
2023-02-22T17:56:44.705Z,28.08
2023-02-22T17:59:12.924Z,28.15
2023-02-22T18:01:40.019Z,27.96
2023-02-22T18:04:06.877Z,28.09
2023-02-22T18:06:33.831Z,28.13
2023-02-22T18:09:01.716Z,27.60
2023-02-22T18:11:32.504Z,27.66
2023-02-22T18:13:59.732Z,28.20
2023-02-22T18:16:28.196Z,28.07
2023-02-22T18:18:55.808Z,27.82
2023-02-22T18:21:23.451Z,28.07
2023-02-22T18:23:50.400Z,28.23
2023-02-22T18:26:19.427Z,27.89
2023-02-22T18:28:48.746Z,27.74
2023-02-22T18:31:17.793Z,27.60
2023-02-22T18:33:48.587Z,27.61
2023-02-22T18:36:16.409Z,27.77
2023-02-22T18:38:44.558Z,27.77
2023-02-22T18:41:13.216Z,27.83
2023-02-22T18:43:40.804Z,28.03
2023-02-22T18:46:09.448Z,27.63
2023-02-22T18:48:36.673Z,28.06
2023-02-22T18:51:07.298Z,28.14
2023-02-22T18:53:34.154Z,27.73
2023-02-22T18:56:03.840Z,28.12
2023-02-22T18:58:32.829Z,27.89
2023-02-22T19:01:00.184Z,27.69
2023-02-22T19:03:27.707Z,28.21
2023-02-22T19:05:56.104Z,27.65
2023-02-22T19:08:24.308Z,28.01
2023-02-22T19:10:51.225Z,27.62
2023-02-22T19:13:18.963Z,27.78
2023-02-22T19:15:45.803Z,27.92
2023-02-22T19:18:13.069Z,27.98
2023-02-22T19:23:10.456Z,28.31
2023-02-22T19:25:42.588Z,28.14
2023-02-22T19:28:09.636Z,28.09
2023-02-22T19:30:36.490Z,28.27
2023-02-22T19:33:04.894Z,28.17
2023-02-22T19:35:31.831Z,28.19
2023-02-22T19:37:58.822Z,28.27
2023-02-22T19:40:26.585Z,27.86
2023-02-22T19:42:57.819Z,27.89
2023-02-22T19:45:25.090Z,27.99
2023-02-22T19:47:54.600Z,28.06
2023-02-22T19:50:22.013Z,28.03
2023-02-22T19:52:48.859Z,27.96
2023-02-22T19:55:15.918Z,27.74
2023-02-22T19:57:46.433Z,28.32
2023-02-22T20:00:24.097Z,28.07
2023-02-22T20:03:05.593Z,28.33
2023-02-22T20:05:33.436Z,27.91
2023-02-22T20:08:00.335Z,27.90
2023-02-22T20:10:27.349Z,28.16
2023-02-22T20:12:54.177Z,28.16
2023-02-22T20:15:23.997Z,28.17
2023-02-22T20:17:51.288Z,28.49
2023-02-22T20:20:18.751Z,28.21
2023-02-22T20:22:45.746Z,28.01
2023-02-22T20:25:13.617Z,28.56
2023-02-22T20:27:40.860Z,28.53
2023-02-22T20:30:10.463Z,28.64
2023-02-22T20:32:39.666Z,28.39
2023-02-22T20:35:07.686Z,28.57
2023-02-22T20:37:35.544Z,28.25
2023-02-22T20:40:04.179Z,28.35
2023-02-22T20:42:31.979Z,28.42
2023-02-22T20:45:01.888Z,28.64
2023-02-22T20:47:28.774Z,28.53
2023-02-22T20:49:57.004Z,28.10
2023-02-22T20:52:23.844Z,28.20
2023-02-22T20:54:50.731Z,28.05
2023-02-22T20:57:17.632Z,28.39
2023-02-22T20:59:45.930Z,28.28
2023-02-22T21:02:12.838Z,28.61
2023-02-22T21:04:40.024Z,28.46
2023-02-22T21:07:08.310Z,28.69
2023-02-22T21:09:35.195Z,28.18
2023-02-22T21:12:02.077Z,28.91
2023-02-22T21:14:30.920Z,28.99
2023-02-22T21:16:57.749Z,28.34
2023-02-22T21:19:27.320Z,28.52
2023-02-22T21:21:55.655Z,28.36
2023-02-22T21:24:25.666Z,29.03
2023-02-22T21:26:52.607Z,28.66
2023-02-22T21:29:19.579Z,28.91
2023-02-22T21:31:46.603Z,28.93
2023-02-22T21:34:17.471Z,28.77
2023-02-22T21:36:45.170Z,29.10
2023-02-22T21:39:18.116Z,28.95
2023-02-22T21:41:48.082Z,28.81
2023-02-22T21:44:15.541Z,29.04
2023-02-22T21:46:43.072Z,29.00
2023-02-22T21:49:11.323Z,29.29
2023-02-22T21:51:38.432Z,29.12
2023-02-22T21:54:08.313Z,29.23
2023-02-22T21:56:36.833Z,28.99
2023-02-22T21:59:06.572Z,29.23
2023-02-22T22:01:35.789Z,29.07
2023-02-22T22:04:04.068Z,29.56
2023-02-22T22:06:33.205Z,29.25
2023-02-22T22:09:00.963Z,29.55
2023-02-22T22:11:30.608Z,29.71
2023-02-22T22:13:58.817Z,29.78
2023-02-22T22:16:29.798Z,29.44
2023-02-22T22:18:57.319Z,29.30
2023-02-22T22:21:24.652Z,29.73
2023-02-22T22:23:56.016Z,29.36
2023-02-22T22:26:24.655Z,29.62
2023-02-22T22:28:53.534Z,29.43
2023-02-22T22:31:23.728Z,29.83
2023-02-22T22:33:53.369Z,29.45
2023-02-22T22:36:21.646Z,29.82
2023-02-22T22:38:48.598Z,29.73
2023-02-22T22:41:18.895Z,29.73
2023-02-22T22:43:46.918Z,30.06
2023-02-22T22:46:16.224Z,29.62
2023-02-22T22:48:47.039Z,29.75
2023-02-22T22:51:19.749Z,30.08
2023-02-22T22:53:48.866Z,29.79
2023-02-22T22:56:17.815Z,29.63
2023-02-22T22:58:48.616Z,29.66
2023-02-22T23:01:19.739Z,29.90
2023-02-22T23:03:53.949Z,30.07
2023-02-22T23:06:24.947Z,30.18
2023-02-22T23:09:00.040Z,30.10
2023-02-22T23:11:28.700Z,30.07
2023-02-22T23:13:56.430Z,30.09
2023-02-22T23:16:24.165Z,30.02
2023-02-22T23:18:51.496Z,29.64
2023-02-22T23:21:19.789Z,30.01
2023-02-22T23:23:51.620Z,30.27
2023-02-22T23:26:18.565Z,30.10
2023-02-22T23:28:47.687Z,30.13
2023-02-22T23:31:16.914Z,30.28
2023-02-22T23:33:45.438Z,30.28
2023-02-22T23:36:12.490Z,30.04
2023-02-22T23:38:40.043Z,30.20
2023-02-22T23:41:10.592Z,30.25
2023-02-22T23:43:40.570Z,30.07
2023-02-22T23:46:10.814Z,30.28
2023-02-22T23:48:39.544Z,30.08
2023-02-22T23:51:09.155Z,30.25
2023-02-22T23:53:38.437Z,30.12
2023-02-22T23:56:10.101Z,30.26
2023-02-22T23:58:38.298Z,30.34
